Time;durP1;ratioP1;P1;durP2;ratioP2;P2;SDS_P1;SDS_P2;PMS_P1;PMS_P2;Temp;Humidity;BMP_temperature;BMP_pressure;BME280_temperature;BME280_humidity;BME280_pressure;Samples;Min_cycle;Max_cycle;Signal;HPM_P1;HPM_P2
2023/01/06 00:00:20;;;;;;;33.22;15.85;;;11.20;99.90;;;;;;5030568;28;20553;-69
2023/01/06 00:02:54;;;;;;;13.93;3.25;;;11.20;99.90;;;;;;5026575;28;20030;-69
2023/01/06 00:05:20;;;;;;;41.28;16.48;;;11.30;99.90;;;;;;5025978;28;20026;-68
2023/01/06 00:07:49;;;;;;;13.80;4.13;;;11.30;99.90;;;;;;5032448;28;20485;-69
2023/01/06 00:10:15;;;;;;;15.20;2.95;;;11.30;99.90;;;;;;5030502;28;20052;-69
2023/01/06 00:12:44;;;;;;;26.83;9.90;;;11.30;99.90;;;;;;5031442;28;20045;-69
2023/01/06 00:15:10;;;;;;;11.20;3.67;;;11.30;99.90;;;;;;5018526;28;20124;-69
2023/01/06 00:17:35;;;;;;;10.80;2.25;;;11.30;99.90;;;;;;5031487;28;20530;-68
2023/01/06 00:20:01;;;;;;;12.65;3.67;;;11.30;99.90;;;;;;5020995;28;20034;-68
2023/01/06 00:22:38;;;;;;;16.27;3.60;;;11.40;99.90;;;;;;5031990;28;20030;-68
2023/01/06 00:25:05;;;;;;;15.25;4.47;;;11.40;99.90;;;;;;5027929;28;20033;-69
2023/01/06 00:27:31;;;;;;;11.38;3.30;;;11.40;99.90;;;;;;5018104;28;20041;-70
2023/01/06 00:29:57;;;;;;;24.98;5.93;;;11.50;99.90;;;;;;5028139;28;20399;-69
2023/01/06 00:32:22;;;;;;;29.42;9.63;;;11.50;99.90;;;;;;5024942;28;20406;-68
2023/01/06 00:34:48;;;;;;;23.48;7.10;;;11.40;99.90;;;;;;5026437;28;20076;-70
2023/01/06 00:37:14;;;;;;;12.52;2.42;;;11.50;99.90;;;;;;5014687;28;20038;-70
2023/01/06 00:39:39;;;;;;;12.40;3.60;;;11.50;99.90;;;;;;5026931;28;20113;-69
2023/01/06 00:42:05;;;;;;;21.48;6.88;;;11.40;99.90;;;;;;5022220;28;20471;-68
2023/01/06 00:44:38;;;;;;;12.18;3.72;;;11.50;99.90;;;;;;5027514;28;20037;-69
2023/01/06 00:47:06;;;;;;;13.13;2.53;;;11.50;99.90;;;;;;5030125;28;20112;-68
2023/01/06 00:49:32;;;;;;;9.93;3.13;;;11.50;99.90;;;;;;5016498;28;20059;-69
2023/01/06 00:51:58;;;;;;;39.95;14.70;;;11.50;99.90;;;;;;5018941;28;20041;-68
2023/01/06 00:54:24;;;;;;;11.45;2.67;;;11.50;99.90;;;;;;5028683;28;20025;-69
2023/01/06 00:56:51;;;;;;;11.90;2.42;;;11.50;99.90;;;;;;5029655;28;20038;-69
2023/01/06 00:59:19;;;;;;;12.98;2.05;;;11.60;99.90;;;;;;5026548;28;20021;-68
2023/01/06 01:01:46;;;;;;;11.00;3.25;;;11.60;99.90;;;;;;5025365;28;20053;-69
2023/01/06 01:04:13;;;;;;;9.55;1.92;;;11.60;99.90;;;;;;5028922;28;20427;-69
2023/01/06 01:06:41;;;;;;;9.75;2.50;;;11.60;99.90;;;;;;5025110;28;20105;-69
2023/01/06 01:09:06;;;;;;;56.20;23.13;;;11.60;99.90;;;;;;5025082;28;20475;-70
2023/01/06 01:14:19;;;;;;;28.63;11.45;;;11.60;99.90;;;;;;5021717;28;20033;-69
2023/01/06 01:16:45;;;;;;;16.23;5.60;;;11.60;99.90;;;;;;5029222;28;20044;-70
2023/01/06 01:19:12;;;;;;;13.98;4.88;;;11.60;99.90;;;;;;5027678;28;20387;-69
2023/01/06 01:21:38;;;;;;;17.73;6.30;;;11.60;99.90;;;;;;5028619;28;20033;-69
2023/01/06 01:24:03;;;;;;;13.07;5.07;;;11.60;99.90;;;;;;5025047;28;20448;-70
2023/01/06 01:26:29;;;;;;;17.58;6.75;;;11.60;99.90;;;;;;5031385;28;20040;-70
2023/01/06 01:28:54;;;;;;;9.02;2.72;;;11.60;99.90;;;;;;5027637;28;20104;-68
2023/01/06 01:31:20;;;;;;;9.13;2.92;;;11.60;99.90;;;;;;5025998;28;20387;-69
2023/01/06 01:33:46;;;;;;;9.40;2.60;;;11.60;99.90;;;;;;5031208;28;20037;-68
2023/01/06 01:36:13;;;;;;;7.03;2.35;;;11.60;99.90;;;;;;5015375;28;20056;-70
2023/01/06 01:38:40;;;;;;;12.60;4.50;;;11.70;99.90;;;;;;5020425;28;20554;-69
2023/01/06 01:41:05;;;;;;;9.73;3.28;;;11.70;99.90;;;;;;5022969;28;20065;-69
2023/01/06 01:43:44;;;;;;;9.20;2.22;;;11.70;99.90;;;;;;5025302;28;20073;-69
2023/01/06 01:46:11;;;;;;;8.80;2.08;;;11.70;99.90;;;;;;5024657;28;20056;-70
2023/01/06 01:48:37;;;;;;;54.10;28.58;;;11.70;99.90;;;;;;5030805;28;20382;-69
2023/01/06 01:51:08;;;;;;;10.07;3.70;;;11.70;99.90;;;;;;5027248;28;20057;-69
2023/01/06 01:53:42;;;;;;;184.40;88.18;;;11.70;99.90;;;;;;5029770;28;20114;-68
2023/01/06 01:56:12;;;;;;;7.60;2.42;;;11.70;99.90;;;;;;5026560;28;20030;-69
2023/01/06 01:58:47;;;;;;;75.20;42.85;;;11.70;99.90;;;;;;5021838;28;20059;-69
2023/01/06 02:01:13;;;;;;;130.15;62.33;;;11.70;99.90;;;;;;5028193;28;20017;-68
2023/01/06 02:03:40;;;;;;;27.88;11.60;;;11.70;99.90;;;;;;5031715;28;20032;-69
2023/01/06 02:06:14;;;;;;;168.25;74.53;;;11.70;99.90;;;;;;5033952;28;20164;-69
2023/01/06 02:09:16;;;;;;;117.50;54.05;;;11.70;99.90;;;;;;5033784;28;20040;-68
2023/01/06 02:11:43;;;;;;;61.40;24.88;;;11.70;99.90;;;;;;5032392;28;20045;-69
2023/01/06 02:14:13;;;;;;;80.53;31.35;;;11.70;99.90;;;;;;5034553;28;20083;-70
2023/01/06 02:16:54;;;;;;;243.60;92.82;;;11.70;99.90;;;;;;5030698;28;20112;-69
2023/01/06 02:20:00;;;;;;;234.18;92.10;;;11.70;99.90;;;;;;5026553;28;20030;-68
2023/01/06 02:22:44;;;;;;;201.80;78.53;;;11.70;99.90;;;;;;5029912;28;20041;-69
2023/01/06 02:25:34;;;;;;;11.88;3.63;;;11.70;99.90;;;;;;5031259;28;20047;-69
2023/01/06 02:28:36;;;;;;;83.75;32.28;;;11.70;99.90;;;;;;5032967;28;20030;-70
2023/01/06 02:31:23;;;;;;;114.43;37.42;;;11.70;99.90;;;;;;5027734;28;20452;-69
2023/01/06 02:33:55;;;;;;;96.82;37.00;;;11.70;99.90;;;;;;5017507;28;20030;-69
2023/01/06 02:36:40;;;;;;;94.45;35.15;;;11.70;99.90;;;;;;5022922;28;20090;-69
2023/01/06 02:39:12;;;;;;;156.07;56.10;;;11.70;99.90;;;;;;5032660;28;20034;-70
2023/01/06 02:41:46;;;;;;;245.57;93.75;;;11.60;99.90;;;;;;5026512;28;20112;-69
2023/01/06 02:44:24;;;;;;;58.05;20.83;;;11.60;99.90;;;;;;5025561;28;20033;-68
2023/01/06 02:47:05;;;;;;;42.38;15.55;;;11.60;99.90;;;;;;5029303;28;20048;-68
2023/01/06 02:49:41;;;;;;;273.63;100.47;;;11.60;99.90;;;;;;5029978;28;20115;-70
2023/01/06 02:52:38;;;;;;;33.70;11.15;;;11.60;99.90;;;;;;5033603;28;20030;-68
2023/01/06 02:55:10;;;;;;;77.30;26.98;;;11.70;99.90;;;;;;5030766;28;20101;-69
2023/01/06 02:57:39;;;;;;;149.70;87.63;;;11.70;99.90;;;;;;5033120;28;20057;-70
2023/01/06 03:00:04;;;;;;;35.75;28.20;;;11.70;99.90;;;;;;5032062;28;20471;-69
2023/01/06 03:02:32;;;;;;;18.90;13.25;;;11.70;99.90;;;;;;5030539;28;20092;-70
2023/01/06 03:05:03;;;;;;;347.27;149.63;;;11.70;99.90;;;;;;5032597;28;20028;-70
2023/01/06 03:07:30;;;;;;;66.85;27.35;;;11.70;99.90;;;;;;5032047;28;20026;-69
2023/01/06 03:09:58;;;;;;;51.03;22.80;;;11.70;99.90;;;;;;5031653;28;20825;-69
2023/01/06 03:12:40;;;;;;;59.00;25.25;;;11.70;99.90;;;;;;5032694;28;20037;-70
2023/01/06 03:15:07;;;;;;;53.92;20.10;;;11.60;99.90;;;;;;5027309;28;20018;-68
2023/01/06 03:17:32;;;;;;;32.92;11.90;;;11.60;99.90;;;;;;5033153;28;20037;-69
2023/01/06 03:19:58;;;;;;;33.63;12.55;;;11.70;99.90;;;;;;5031925;28;20075;-69
2023/01/06 03:22:24;;;;;;;10.65;2.78;;;11.70;99.90;;;;;;5027170;28;20383;-68
2023/01/06 03:24:51;;;;;;;149.88;59.72;;;11.70;99.90;;;;;;5030702;28;20538;-70
2023/01/06 03:27:20;;;;;;;51.95;20.02;;;11.70;99.90;;;;;;5027800;28;20033;-70
2023/01/06 03:29:46;;;;;;;11.57;3.38;;;11.70;99.90;;;;;;5031701;28;20041;-70
2023/01/06 03:32:24;;;;;;;147.27;55.15;;;11.70;99.90;;;;;;5031085;28;20029;-69
2023/01/06 03:35:08;;;;;;;178.18;61.47;;;11.60;99.90;;;;;;5031193;28;20083;-69
2023/01/06 03:37:43;;;;;;;98.85;33.35;;;11.70;99.90;;;;;;5025853;28;20040;-69
2023/01/06 03:40:22;;;;;;;51.50;16.95;;;11.60;99.90;;;;;;5028452;28;20041;-68
2023/01/06 03:43:15;;;;;;;266.55;86.50;;;11.60;99.90;;;;;;5031931;28;20060;-68
2023/01/06 03:46:06;;;;;;;174.82;67.25;;;11.70;99.90;;;;;;5028739;28;20022;-68
2023/01/06 03:48:57;;;;;;;52.22;13.60;;;11.70;99.90;;;;;;5032834;28;20092;-68
2023/01/06 03:51:41;;;;;;;121.95;37.03;;;11.70;99.90;;;;;;5023286;28;20503;-69
2023/01/06 03:54:23;;;;;;;34.47;9.32;;;11.70;99.90;;;;;;5029524;28;20033;-69
2023/01/06 03:56:51;;;;;;;146.13;43.35;;;11.70;99.90;;;;;;5027805;28;20028;-69
2023/01/06 03:59:22;;;;;;;190.70;54.65;;;11.70;99.90;;;;;;5032404;28;20138;-68
2023/01/06 04:01:48;;;;;;;153.07;43.83;;;11.70;99.90;;;;;;5017067;28;20025;-69
2023/01/06 04:04:16;;;;;;;36.65;11.20;;;11.70;99.90;;;;;;5025126;28;20459;-70
2023/01/06 04:06:41;;;;;;;128.57;39.85;;;11.60;99.90;;;;;;5032099;28;20021;-71
2023/01/06 04:09:07;;;;;;;19.38;6.00;;;11.60;99.90;;;;;;5019434;28;20040;-69
2023/01/06 04:14:17;;;;;;;29.33;11.60;;;11.60;99.90;;;;;;5022844;28;20032;-69
2023/01/06 04:16:42;;;;;;;24.15;11.20;;;11.70;99.90;;;;;;5022363;28;20112;-68
2023/01/06 04:19:08;;;;;;;14.75;6.03;;;11.60;99.90;;;;;;5026401;28;20478;-70
2023/01/06 04:21:33;;;;;;;22.05;8.98;;;11.70;99.90;;;;;;5030356;28;20087;-70
2023/01/06 04:23:59;;;;;;;19.63;8.10;;;11.70;99.90;;;;;;5028067;28;20044;-68
2023/01/06 04:26:25;;;;;;;33.80;15.82;;;11.70;99.90;;;;;;5018710;28;20036;-68
2023/01/06 04:28:50;;;;;;;37.33;18.77;;;11.70;99.90;;;;;;5031561;28;20029;-70
2023/01/06 04:31:16;;;;;;;17.88;6.45;;;11.70;99.90;;;;;;5031616;28;20510;-70
2023/01/06 04:33:41;;;;;;;19.48;9.05;;;11.70;99.90;;;;;;5026256;28;20391;-70
2023/01/06 04:36:07;;;;;;;26.73;11.32;;;11.70;99.90;;;;;;5032531;28;20112;-70
2023/01/06 04:38:34;;;;;;;13.45;4.88;;;11.70;99.90;;;;;;5031005;28;20071;-69
2023/01/06 04:40:59;;;;;;;7.40;2.97;;;11.70;99.90;;;;;;5032329;28;20041;-70
2023/01/06 04:43:25;;;;;;;14.38;4.35;;;11.70;99.90;;;;;;5032009;28;20030;-70
2023/01/06 04:45:50;;;;;;;4.32;1.90;;;11.80;99.90;;;;;;5032698;28;20034;-69
2023/01/06 04:48:16;;;;;;;4.50;1.55;;;11.80;99.90;;;;;;5023531;28;20035;-69
2023/01/06 04:50:41;;;;;;;7.63;2.70;;;11.80;99.90;;;;;;5031648;28;20088;-69
2023/01/06 04:53:09;;;;;;;5.45;1.60;;;11.80;99.90;;;;;;5017447;28;20152;-69
2023/01/06 04:55:39;;;;;;;6.20;1.40;;;11.80;99.90;;;;;;5019099;28;20442;-70
2023/01/06 04:58:05;;;;;;;9.85;2.75;;;11.70;99.90;;;;;;5031299;28;20044;-68
2023/01/06 05:00:31;;;;;;;4.63;2.50;;;11.70;99.90;;;;;;5031887;28;20040;-69
2023/01/06 05:02:56;;;;;;;6.72;2.78;;;11.70;99.90;;;;;;5032057;28;20037;-68
2023/01/06 05:05:22;;;;;;;5.93;2.20;;;11.70;99.90;;;;;;5032160;28;20053;-68
2023/01/06 05:07:48;;;;;;;3.67;1.92;;;11.60;99.90;;;;;;5031574;28;20213;-67
2023/01/06 05:10:13;;;;;;;4.57;1.40;;;11.50;99.90;;;;;;5031544;28;20049;-68
2023/01/06 05:12:39;;;;;;;2.70;1.45;;;11.50;99.90;;;;;;5030644;28;20047;-69
2023/01/06 05:15:05;;;;;;;2.30;1.50;;;11.40;99.90;;;;;;5032165;28;20022;-69
2023/01/06 05:17:30;;;;;;;6.35;1.58;;;11.40;99.90;;;;;;5031593;28;20029;-69
2023/01/06 05:19:56;;;;;;;3.78;2.58;;;11.30;99.90;;;;;;5032049;28;20091;-69
2023/01/06 05:22:22;;;;;;;8.27;2.30;;;11.30;99.90;;;;;;5031671;28;20113;-69
2023/01/06 05:24:47;;;;;;;6.30;1.80;;;11.20;99.90;;;;;;5031743;28;20471;-69
2023/01/06 05:27:13;;;;;;;5.88;2.00;;;11.20;99.90;;;;;;5031140;28;20048;-70
2023/01/06 05:29:38;;;;;;;7.00;2.60;;;11.20;99.90;;;;;;5031427;28;20475;-70
2023/01/06 05:32:05;;;;;;;7.82;2.50;;;11.10;99.90;;;;;;5031429;28;20033;-70
2023/01/06 05:34:31;;;;;;;6.95;2.95;;;11.10;99.90;;;;;;5031853;28;20038;-69
2023/01/06 05:36:56;;;;;;;3.45;1.80;;;11.10;99.90;;;;;;5035094;28;20113;-70
2023/01/06 05:39:22;;;;;;;6.90;2.13;;;11.10;99.90;;;;;;5035415;28;20036;-69
2023/01/06 05:41:48;;;;;;;7.03;2.10;;;11.10;99.90;;;;;;5035467;28;20743;-69
2023/01/06 05:44:13;;;;;;;5.15;2.63;;;11.00;99.90;;;;;;5035759;28;20036;-70
2023/01/06 05:46:39;;;;;;;6.00;2.40;;;11.00;99.90;;;;;;5036092;28;20123;-70
2023/01/06 05:49:04;;;;;;;6.43;2.55;;;11.00;99.90;;;;;;5018341;28;20060;-69
2023/01/06 05:51:30;;;;;;;3.85;2.42;;;11.00;99.90;;;;;;5033522;28;20371;-70
2023/01/06 05:53:56;;;;;;;3.88;2.40;;;11.00;99.90;;;;;;5035445;28;20033;-69
2023/01/06 05:56:22;;;;;;;8.90;2.70;;;10.90;99.90;;;;;;5035496;28;20033;-69
2023/01/06 05:58:50;;;;;;;8.05;2.75;;;10.90;99.90;;;;;;5034426;28;20036;-69
2023/01/06 06:01:18;;;;;;;10.70;3.08;;;10.80;99.90;;;;;;5034575;28;20049;-68
2023/01/06 06:03:44;;;;;;;7.38;2.67;;;10.80;99.90;;;;;;5034196;28;20033;-69
2023/01/06 06:06:10;;;;;;;13.00;3.78;;;10.80;99.90;;;;;;5035243;28;20036;-70
2023/01/06 06:08:36;;;;;;;9.43;2.35;;;10.80;99.90;;;;;;5034452;28;20025;-68
2023/01/06 06:11:06;;;;;;;7.10;2.90;;;10.80;99.90;;;;;;5034338;28;20049;-69
2023/01/06 06:13:32;;;;;;;15.77;2.90;;;10.70;99.90;;;;;;5014727;28;20034;-69
2023/01/06 06:16:12;;;;;;;9.07;2.88;;;10.70;99.90;;;;;;5031211;28;20062;-70
2023/01/06 06:18:41;;;;;;;12.65;2.65;;;10.60;99.90;;;;;;5034140;28;20033;-69
2023/01/06 06:21:08;;;;;;;16.60;3.47;;;10.60;99.90;;;;;;5034958;28;20052;-69
2023/01/06 06:23:34;;;;;;;13.13;2.95;;;10.60;99.90;;;;;;5032295;28;20061;-69
2023/01/06 06:26:00;;;;;;;13.43;2.85;;;10.60;99.90;;;;;;5015240;28;20115;-69
2023/01/06 06:28:26;;;;;;;12.55;2.67;;;10.60;99.90;;;;;;5018438;28;20048;-68
2023/01/06 06:30:52;;;;;;;11.35;2.22;;;10.60;99.90;;;;;;5023478;28;20045;-68
2023/01/06 06:33:17;;;;;;;18.88;3.47;;;10.50;99.90;;;;;;5016020;28;20032;-68
2023/01/06 06:35:43;;;;;;;20.40;4.25;;;10.60;99.90;;;;;;5014573;28;20021;-69
2023/01/06 06:38:08;;;;;;;16.08;3.20;;;10.50;99.90;;;;;;5023687;28;20146;-70
2023/01/06 06:40:34;;;;;;;15.55;3.30;;;10.50;99.90;;;;;;5034010;28;20117;-69
2023/01/06 06:42:59;;;;;;;23.73;4.20;;;10.50;99.90;;;;;;5034287;28;20047;-70
2023/01/06 06:45:25;;;;;;;21.63;3.88;;;10.40;99.90;;;;;;5031592;28;20132;-69
2023/01/06 06:47:54;;;;;;;22.27;3.50;;;10.50;99.90;;;;;;5034022;28;20025;-69
2023/01/06 06:50:19;;;;;;;24.60;3.83;;;10.40;99.90;;;;;;5034082;28;20057;-69
2023/01/06 06:52:45;;;;;;;22.08;4.13;;;10.40;99.90;;;;;;5034684;28;20383;-69
2023/01/06 06:55:10;;;;;;;24.02;3.72;;;10.40;99.90;;;;;;5018543;28;20037;-69
2023/01/06 06:57:36;;;;;;;18.85;3.35;;;10.50;99.90;;;;;;5015002;28;20033;-68
2023/01/06 07:00:02;;;;;;;21.42;3.00;;;10.50;99.90;;;;;;5033614;28;20530;-70
2023/01/06 07:02:28;;;;;;;24.90;3.58;;;10.50;99.90;;;;;;5033601;28;20029;-69
2023/01/06 07:04:54;;;;;;;27.52;4.50;;;10.60;99.90;;;;;;5020067;28;20030;-70
2023/01/06 07:07:19;;;;;;;29.08;4.10;;;10.60;99.90;;;;;;5014069;28;20053;-69
2023/01/06 07:09:45;;;;;;;28.70;4.10;;;10.50;99.90;;;;;;5056154;28;20124;-69
2023/01/06 07:12:10;;;;;;;23.80;3.50;;;10.60;99.90;;;;;;5033909;28;20115;-70
2023/01/06 07:14:36;;;;;;;26.27;3.63;;;10.60;99.90;;;;;;5033408;28;20071;-69
2023/01/06 07:17:01;;;;;;;17.33;2.63;;;10.60;99.90;;;;;;5027442;28;20022;-69
2023/01/06 07:19:27;;;;;;;22.88;2.97;;;10.60;99.90;;;;;;5016706;28;20033;-69
2023/01/06 07:21:53;;;;;;;21.27;2.88;;;10.50;99.90;;;;;;5026532;28;20418;-68
2023/01/06 07:24:18;;;;;;;29.42;3.42;;;10.50;99.90;;;;;;5033415;28;20368;-70
2023/01/06 07:26:44;;;;;;;20.58;2.78;;;10.50;99.90;;;;;;5031463;28;20032;-70
2023/01/06 07:29:09;;;;;;;16.13;2.15;;;10.40;99.90;;;;;;5033985;28;20037;-71
2023/01/06 07:31:35;;;;;;;18.95;3.08;;;10.30;99.90;;;;;;5033567;28;20037;-69
2023/01/06 07:34:00;;;;;;;16.80;2.63;;;10.10;99.90;;;;;;5033845;28;20044;-69
2023/01/06 07:36:27;;;;;;;24.13;2.70;;;10.00;99.90;;;;;;5031380;28;20048;-70
2023/01/06 07:38:53;;;;;;;16.60;3.00;;;10.00;99.90;;;;;;5013503;28;20117;-70
2023/01/06 07:41:18;;;;;;;17.92;2.70;;;9.80;99.90;;;;;;5019666;28;20101;-69
2023/01/06 07:43:44;;;;;;;21.10;2.53;;;9.80;99.90;;;;;;5032148;28;20033;-70
2023/01/06 07:46:09;;;;;;;16.35;2.63;;;9.70;99.90;;;;;;5032666;28;20033;-70
2023/01/06 07:48:35;;;;;;;15.00;2.28;;;9.60;99.90;;;;;;5032988;28;20043;-70
2023/01/06 07:51:02;;;;;;;28.00;2.90;;;9.50;99.90;;;;;;5032799;28;20103;-69
2023/01/06 07:53:27;;;;;;;14.02;1.95;;;9.50;99.90;;;;;;5033324;28;20041;-70
2023/01/06 07:55:53;;;;;;;19.30;2.53;;;9.50;99.90;;;;;;5033341;28;20460;-70
2023/01/06 07:58:19;;;;;;;24.17;2.72;;;9.40;99.90;;;;;;5017568;28;20053;-69
2023/01/06 08:00:45;;;;;;;17.95;2.47;;;9.40;99.90;;;;;;5017724;28;20017;-68
2023/01/06 08:03:11;;;;;;;17.13;2.35;;;9.30;99.90;;;;;;5031224;28;20048;-69
2023/01/06 08:05:37;;;;;;;34.38;4.68;;;9.30;99.90;;;;;;5031750;28;20087;-70
2023/01/06 08:08:03;;;;;;;10.80;1.52;;;9.30;99.90;;;;;;5030716;28;20375;-70
2023/01/06 08:10:29;;;;;;;14.82;2.00;;;9.30;99.90;;;;;;5032467;28;20029;-68
2023/01/06 08:12:55;;;;;;;14.55;1.80;;;9.20;99.90;;;;;;5020535;28;20030;-70
2023/01/06 08:15:21;;;;;;;18.63;2.28;;;9.20;99.90;;;;;;5030684;28;20040;-70
2023/01/06 08:17:46;;;;;;;12.68;1.63;;;9.20;99.90;;;;;;5032946;28;20491;-68
2023/01/06 08:20:12;;;;;;;10.43;1.70;;;9.20;99.90;;;;;;5032354;28;20033;-69
2023/01/06 08:22:37;;;;;;;13.52;2.25;;;9.20;99.90;;;;;;5032983;28;20039;-70
2023/01/06 08:25:03;;;;;;;13.25;2.15;;;9.20;99.90;;;;;;5031128;28;20040;-69
2023/01/06 08:27:30;;;;;;;13.15;1.85;;;9.20;99.90;;;;;;5032373;28;20075;-70
2023/01/06 08:29:55;;;;;;;8.80;2.25;;;9.10;99.90;;;;;;5032263;28;20486;-69
2023/01/06 08:32:21;;;;;;;13.43;1.60;;;9.10;99.90;;;;;;5018523;28;20066;-70
2023/01/06 08:34:47;;;;;;;16.90;2.10;;;9.10;99.90;;;;;;5024926;28;20125;-70
2023/01/06 08:37:13;;;;;;;12.02;2.38;;;9.10;99.90;;;;;;5032288;28;20024;-69
2023/01/06 08:39:38;;;;;;;16.08;1.75;;;9.10;99.90;;;;;;5032271;28;20029;-70
2023/01/06 08:42:04;;;;;;;15.38;1.90;;;9.00;99.90;;;;;;5030739;28;20043;-70
2023/01/06 08:44:30;;;;;;;19.35;2.50;;;9.00;99.90;;;;;;5030972;28;20041;-69
2023/01/06 08:46:55;;;;;;;9.93;2.13;;;9.00;99.90;;;;;;5032519;28;20026;-68
2023/01/06 08:49:21;;;;;;;15.13;1.80;;;9.10;99.90;;;;;;5029238;28;20403;-70
2023/01/06 08:51:46;;;;;;;11.23;1.80;;;9.10;99.90;;;;;;5031267;28;20052;-70
2023/01/06 08:54:13;;;;;;;13.90;1.70;;;9.10;99.90;;;;;;5030561;28;20033;-70
2023/01/06 08:56:42;;;;;;;13.10;2.42;;;9.10;99.90;;;;;;5032107;28;20030;-68
2023/01/06 08:59:13;;;;;;;17.00;2.13;;;9.10;99.90;;;;;;5030212;28;20349;-69
2023/01/06 09:01:39;;;;;;;14.40;2.15;;;9.10;99.90;;;;;;5031469;28;20029;-68
2023/01/06 09:04:06;;;;;;;13.30;1.65;;;9.20;99.90;;;;;;5031092;28;20155;-70
2023/01/06 09:06:32;;;;;;;10.57;2.08;;;9.20;99.90;;;;;;5032053;28;20029;-69
2023/01/06 09:09:01;;;;;;;12.57;1.70;;;9.20;99.90;;;;;;5029848;28;20044;-69
2023/01/06 09:11:26;;;;;;;17.52;2.30;;;9.20;99.90;;;;;;5026467;28;20228;-68
2023/01/06 09:13:52;;;;;;;16.48;2.38;;;9.20;99.90;;;;;;5032056;28;20118;-70
2023/01/06 09:16:19;;;;;;;16.27;1.92;;;9.30;99.90;;;;;;5035030;28;20100;-70
2023/01/06 09:18:51;;;;;;;10.63;1.60;;;9.40;99.90;;;;;;5035744;28;20037;-70
2023/01/06 09:21:19;;;;;;;16.58;2.22;;;9.40;99.90;;;;;;5034668;28;20040;-69
2023/01/06 09:23:46;;;;;;;13.52;2.17;;;9.40;99.90;;;;;;5034513;28;20033;-69
2023/01/06 09:26:13;;;;;;;22.42;3.33;;;9.40;99.90;;;;;;5036221;28;20033;-70
2023/01/06 09:28:40;;;;;;;11.82;2.25;;;9.50;99.90;;;;;;5030258;28;20042;-69
2023/01/06 09:31:06;;;;;;;14.80;2.17;;;9.50;99.90;;;;;;5022060;28;20041;-68
2023/01/06 09:33:32;;;;;;;27.20;2.80;;;9.50;99.90;;;;;;5036075;28;20035;-69
2023/01/06 09:35:58;;;;;;;15.45;2.28;;;9.60;99.90;;;;;;5035869;28;20053;-68
2023/01/06 09:38:25;;;;;;;16.85;2.17;;;9.60;99.90;;;;;;5034753;28;20190;-69
2023/01/06 09:41:05;;;;;;;13.77;1.92;;;9.60;99.90;;;;;;5035258;28;20025;-69
2023/01/06 09:43:46;;;;;;;13.43;1.60;;;9.70;99.90;;;;;;5035124;28;20021;-69
2023/01/06 09:46:20;;;;;;;15.57;2.00;;;9.70;99.90;;;;;;5035720;28;20030;-70
2023/01/06 09:49:03;;;;;;;10.35;1.58;;;9.70;99.90;;;;;;5032438;28;20371;-69
2023/01/06 09:51:31;;;;;;;10.55;1.75;;;9.80;99.90;;;;;;5020649;28;20128;-69
2023/01/06 09:54:11;;;;;;;15.40;2.17;;;9.90;99.90;;;;;;5015883;28;20610;-70
2023/01/06 09:56:40;;;;;;;16.52;2.70;;;9.90;99.90;;;;;;5015857;28;20100;-69
2023/01/06 09:59:20;;;;;;;13.75;2.20;;;10.10;99.90;;;;;;5019157;28;20033;-68
2023/01/06 10:01:48;;;;;;;13.40;1.83;;;10.20;99.90;;;;;;5034540;28;20026;-69
2023/01/06 10:04:19;;;;;;;13.45;2.17;;;10.30;99.90;;;;;;5035451;28;20463;-69
2023/01/06 10:06:58;;;;;;;13.07;1.80;;;10.40;99.90;;;;;;5034941;28;20060;-69
2023/01/06 10:09:47;;;;;;;8.40;1.80;;;10.60;99.90;;;;;;5033530;28;20037;-70
2023/01/06 10:12:19;;;;;;;37.97;2.80;;;11.00;99.90;;;;;;5035146;28;20036;-69
2023/01/06 10:15:09;;;;;;;16.10;2.03;;;11.50;99.90;;;;;;5035360;28;20099;-69
2023/01/06 10:17:53;;;;;;;11.80;2.63;;;11.80;99.90;;;;;;5033286;28;20034;-69
2023/01/06 10:20:52;;;;;;;14.60;1.60;;;12.00;99.90;;;;;;5034509;28;20025;-69
2023/01/06 10:23:55;;;;;;;14.50;2.45;;;11.90;99.90;;;;;;5033099;28;20446;-70
2023/01/06 10:26:29;;;;;;;12.27;2.30;;;11.70;99.90;;;;;;5029063;28;20696;-69
2023/01/06 10:29:01;;;;;;;14.38;2.10;;;11.60;99.90;;;;;;5023268;28;20033;-71
2023/01/06 10:31:33;;;;;;;18.45;3.22;;;11.40;99.90;;;;;;5029097;28;20037;-69
2023/01/06 10:34:00;;;;;;;18.13;2.33;;;11.40;99.90;;;;;;5028540;28;20067;-70
2023/01/06 10:36:31;;;;;;;21.25;2.53;;;11.60;99.90;;;;;;5032346;28;20041;-69
2023/01/06 10:38:57;;;;;;;17.08;2.45;;;11.80;99.90;;;;;;5034410;28;20390;-70
2023/01/06 10:41:55;;;;;;;14.50;2.85;;;12.10;99.90;;;;;;5037813;28;20029;-68
2023/01/06 10:44:21;;;;;;;17.92;2.92;;;12.20;99.90;;;;;;5050783;28;20051;-70
2023/01/06 10:46:48;;;;;;;15.07;2.50;;;12.40;99.90;;;;;;5039036;28;20032;-69
2023/01/06 10:49:18;;;;;;;21.27;3.70;;;12.50;99.90;;;;;;5033317;28;20030;-70
2023/01/06 10:51:59;;;;;;;13.73;2.00;;;12.70;99.90;;;;;;5049409;28;20036;-70
2023/01/06 10:54:27;;;;;;;21.00;2.58;;;12.80;99.90;;;;;;5040428;28;20017;-69
2023/01/06 10:57:00;;;;;;;22.92;4.07;;;12.60;99.90;;;;;;5046443;28;20028;-69
2023/01/06 10:59:25;;;;;;;20.52;2.97;;;12.50;99.90;;;;;;5042189;28;20042;-70
2023/01/06 11:01:54;;;;;;;15.63;2.58;;;12.50;99.90;;;;;;5032403;28;20613;-70
2023/01/06 11:04:20;;;;;;;11.35;3.63;;;12.40;99.90;;;;;;5035070;28;20029;-69
2023/01/06 11:06:59;;;;;;;18.20;2.28;;;12.50;99.90;;;;;;5028987;28;20025;-70
2023/01/06 11:09:30;;;;;;;15.98;2.65;;;12.40;99.90;;;;;;5035741;28;20034;-69
2023/01/06 11:12:00;;;;;;;20.30;2.78;;;12.20;99.90;;;;;;5035136;28;20049;-70
2023/01/06 11:14:31;;;;;;;12.00;3.17;;;12.30;99.90;;;;;;5043400;28;20029;-71
2023/01/06 11:17:01;;;;;;;21.13;2.72;;;12.20;99.90;;;;;;5035793;28;20112;-69
2023/01/06 11:19:45;;;;;;;14.43;2.47;;;12.00;99.90;;;;;;5031840;28;20140;-70
2023/01/06 11:22:31;;;;;;;14.57;2.65;;;11.90;99.90;;;;;;5028861;28;20041;-71
2023/01/06 11:24:57;;;;;;;13.27;2.30;;;11.90;99.90;;;;;;5028938;28;20039;-69
2023/01/06 11:27:22;;;;;;;15.90;2.33;;;12.00;99.90;;;;;;5029585;28;20030;-70
2023/01/06 11:29:48;;;;;;;10.18;1.95;;;12.00;99.90;;;;;;5029125;28;20050;-70
2023/01/06 11:32:22;;;;;;;9.80;2.20;;;12.20;99.90;;;;;;5027395;28;20029;-69
2023/01/06 11:35:03;;;;;;;11.68;2.15;;;12.20;99.90;;;;;;5028919;28;20103;-68
2023/01/06 11:37:35;;;;;;;9.18;1.95;;;12.10;99.90;;;;;;5025226;28;20047;-69
2023/01/06 11:40:15;;;;;;;15.13;2.40;;;12.10;99.90;;;;;;5028234;28;20041;-70
2023/01/06 11:42:41;;;;;;;11.02;2.25;;;11.90;99.90;;;;;;5030486;28;20033;-70
2023/01/06 11:45:07;;;;;;;18.55;2.60;;;11.90;99.90;;;;;;5029003;28;20024;-69
2023/01/06 11:47:33;;;;;;;9.48;1.75;;;11.80;99.90;;;;;;5030193;28;20033;-70
2023/01/06 11:50:00;;;;;;;19.35;3.60;;;11.80;99.90;;;;;;5029715;28;20087;-69
2023/01/06 11:52:31;;;;;;;18.80;2.70;;;11.80;99.90;;;;;;5031736;28;20052;-70
2023/01/06 11:55:07;;;;;;;14.15;3.05;;;11.80;99.90;;;;;;5024812;28;20021;-70
2023/01/06 11:57:38;;;;;;;14.80;1.88;;;11.90;99.90;;;;;;5025428;28;20065;-70
2023/01/06 12:00:33;;;;;;;9.40;1.90;;;11.90;99.90;;;;;;5030933;28;20471;-70
2023/01/06 12:03:20;;;;;;;17.83;3.50;;;11.90;99.90;;;;;;5025463;28;20040;-68
2023/01/06 12:05:55;;;;;;;15.32;2.20;;;11.90;99.90;;;;;;5029011;28;20021;-69
2023/01/06 12:08:30;;;;;;;16.40;3.22;;;11.80;99.90;;;;;;5029998;28;20041;-70
2023/01/06 12:11:09;;;;;;;18.13;3.35;;;11.80;99.90;;;;;;5032326;28;20037;-70
2023/01/06 12:13:35;;;;;;;15.82;4.03;;;11.80;99.90;;;;;;5015438;28;20077;-70
2023/01/06 12:16:21;;;;;;;21.30;3.70;;;11.80;99.90;;;;;;5019998;28;20025;-69
2023/01/06 12:18:48;;;;;;;18.02;2.42;;;11.80;99.90;;;;;;5030821;28;20139;-70
2023/01/06 12:21:24;;;;;;;16.45;2.50;;;11.80;99.90;;;;;;5031048;28;22551;-70
2023/01/06 12:23:51;;;;;;;12.68;2.03;;;11.70;99.90;;;;;;5028835;28;20091;-69
2023/01/06 12:26:22;;;;;;;15.50;2.20;;;11.60;99.90;;;;;;5029704;28;20029;-71
2023/01/06 12:28:49;;;;;;;13.20;2.30;;;11.50;99.90;;;;;;5031245;28;20029;-70
2023/01/06 12:31:17;;;;;;;13.75;2.10;;;11.50;99.90;;;;;;5028350;28;20081;-69
2023/01/06 12:33:51;;;;;;;22.55;3.65;;;11.40;99.90;;;;;;5032117;28;20017;-70
2023/01/06 12:36:26;;;;;;;12.75;2.67;;;11.40;99.90;;;;;;5027277;28;20044;-69
2023/01/06 12:38:54;;;;;;;11.30;2.35;;;11.40;99.90;;;;;;5026437;28;20468;-69
2023/01/06 12:41:47;;;;;;;11.50;2.00;;;11.50;99.90;;;;;;5031710;28;20491;-69
2023/01/06 12:44:22;;;;;;;8.85;1.63;;;11.40;99.90;;;;;;5024769;28;20084;-69
2023/01/06 12:46:58;;;;;;;10.63;1.67;;;11.40;99.90;;;;;;5031613;28;20033;-69
2023/01/06 12:49:38;;;;;;;15.20;3.13;;;11.30;99.90;;;;;;5023341;28;20061;-70
2023/01/06 12:52:13;;;;;;;9.35;1.48;;;11.30;99.90;;;;;;5030264;28;20037;-69
2023/01/06 12:54:39;;;;;;;12.68;2.38;;;11.20;99.90;;;;;;5018464;28;20479;-69
2023/01/06 12:57:25;;;;;;;17.00;2.65;;;11.20;99.90;;;;;;5029470;28;20044;-69